Time;durP1;ratioP1;P1;durP2;ratioP2;P2;SDS_P1;SDS_P2;PMS_P1;PMS_P2;Temp;Humidity;BMP_temperature;BMP_pressure;BME280_temperature;BME280_humidity;BME280_pressure;Samples;Min_cycle;Max_cycle;Signal;HPM_P1;HPM_P2
2021/12/29 00:02:16;;;;;;;71.57;17.98;;;;;;;;;;5031946;28;20042;-69
2021/12/29 00:04:42;;;;;;;72.65;20.08;;;;;;;;;;5030318;28;20041;-69
2021/12/29 00:07:10;;;;;;;68.47;19.50;;;;;;;;;;5030309;28;20451;-69
2021/12/29 00:09:37;;;;;;;81.85;23.05;;;;;;;;;;5037836;28;20053;-69
2021/12/29 00:12:04;;;;;;;71.70;20.13;;;;;;;;;;5050231;28;20056;-69
2021/12/29 00:14:30;;;;;;;80.32;21.00;;;;;;;;;;5050039;28;20045;-69
2021/12/29 00:16:58;;;;;;;85.60;20.77;;;;;;;;;;5051370;28;20518;-72
2021/12/29 00:19:24;;;;;;;82.70;22.67;;;;;;;;;;5049671;28;20059;-69
2021/12/29 00:21:50;;;;;;;71.32;19.92;;;;;;;;;;5050074;28;20499;-69
2021/12/29 00:24:16;;;;;;;87.55;23.98;;;;;;;;;;5050097;28;20558;-69
2021/12/29 00:26:41;;;;;;;89.55;24.52;;;;;;;;;;5049830;28;20040;-69
2021/12/29 00:29:08;;;;;;;79.30;23.60;;;;;;;;;;5049711;28;20102;-67
2021/12/29 00:31:34;;;;;;;75.65;22.45;;;;;;;;;;5049890;28;20515;-69
2021/12/29 00:34:00;;;;;;;86.22;24.80;;;;;;;;;;5049856;28;20083;-68
2021/12/29 00:36:26;;;;;;;79.75;22.92;;;;;;;;;;5050283;28;20076;-68
2021/12/29 00:38:52;;;;;;;115.93;27.42;;;;;;;;;;5049696;28;20037;-67
2021/12/29 00:41:18;;;;;;;89.43;24.75;;;;;;;;;;5049618;28;20044;-69
2021/12/29 00:43:44;;;;;;;108.15;28.23;;;;;;;;;;5050065;28;20458;-69
2021/12/29 00:46:12;;;;;;;95.45;26.95;;;;;;;;;;5033452;28;20456;-69
2021/12/29 00:48:41;;;;;;;90.03;25.55;;;;;;;;;;5049898;28;20120;-69
2021/12/29 00:51:07;;;;;;;93.13;25.98;;;;;;;;;;5049534;28;20045;-69
2021/12/29 00:53:33;;;;;;;170.73;36.15;;;;;;;;;;5049747;28;20037;-69
2021/12/29 00:56:00;;;;;;;126.40;29.05;;;;;;;;;;5050762;28;20417;-67
2021/12/29 00:58:26;;;;;;;130.60;28.88;;;;;;;;;;5018224;28;20034;-69
2021/12/29 01:00:52;;;;;;;169.40;31.92;;;;;;;;;;5033399;28;20044;-69
2021/12/29 01:03:18;;;;;;;220.48;33.70;;;;;;;;;;5033651;28;20445;-69
2021/12/29 01:05:44;;;;;;;121.78;22.77;;;;;;;;;;5034012;28;20366;-72
2021/12/29 01:08:11;;;;;;;154.27;25.92;;;;;;;;;;5030063;28;20051;-72
2021/12/29 01:10:37;;;;;;;175.65;27.38;;;;;;;;;;5053067;28;20053;-70
2021/12/29 01:13:06;;;;;;;178.23;26.15;;;;;;;;;;5053782;28;20119;-68
2021/12/29 01:15:47;;;;;;;199.10;27.55;;;;;;;;;;5053494;28;20110;-69
2021/12/29 01:18:13;;;;;;;169.20;23.05;;;;;;;;;;5052832;28;20049;-70
2021/12/29 01:20:39;;;;;;;266.40;30.33;;;;;;;;;;5053134;28;20052;-71
2021/12/29 01:23:06;;;;;;;233.57;29.55;;;;;;;;;;5053227;28;20061;-71
2021/12/29 01:25:32;;;;;;;151.07;21.25;;;;;;;;;;5053390;28;20029;-69
2021/12/29 01:27:58;;;;;;;232.00;27.70;;;;;;;;;;5053149;28;20029;-70
2021/12/29 01:30:24;;;;;;;195.40;23.98;;;;;;;;;;5052826;28;20037;-69
2021/12/29 01:32:50;;;;;;;201.52;25.15;;;;;;;;;;5053517;28;20427;-68
2021/12/29 01:35:16;;;;;;;170.25;21.67;;;;;;;;;;5053097;28;20044;-69
2021/12/29 01:37:42;;;;;;;138.25;19.60;;;;;;;;;;5036256;28;20170;-70
2021/12/29 01:40:10;;;;;;;186.57;24.65;;;;;;;;;;5052509;28;20070;-71
2021/12/29 01:42:36;;;;;;;176.40;22.52;;;;;;;;;;5052905;28;20048;-71
2021/12/29 01:45:04;;;;;;;113.53;17.50;;;;;;;;;;5052868;28;20511;-72
2021/12/29 01:47:31;;;;;;;133.30;18.20;;;;;;;;;;5036380;28;20099;-67
2021/12/29 01:50:00;;;;;;;120.47;18.60;;;;;;;;;;5052702;28;20081;-70
2021/12/29 01:52:29;;;;;;;115.72;17.95;;;;;;;;;;5052961;28;20421;-69
2021/12/29 01:54:55;;;;;;;101.57;18.02;;;;;;;;;;5052743;28;20053;-70
2021/12/29 01:57:21;;;;;;;120.85;19.55;;;;;;;;;;5042509;28;20033;-71
2021/12/29 01:59:47;;;;;;;99.93;17.48;;;;;;;;;;5032252;28;20120;-70
2021/12/29 02:02:14;;;;;;;85.40;17.30;;;;;;;;;;5032648;28;20049;-71
2021/12/29 02:04:44;;;;;;;88.40;18.50;;;;;;;;;;5034137;28;20038;-69
2021/12/29 02:07:10;;;;;;;85.88;19.80;;;;;;;;;;5052346;28;20037;-68
2021/12/29 02:09:37;;;;;;;80.20;19.70;;;;;;;;;;5052250;28;20522;-68
2021/12/29 02:12:03;;;;;;;76.32;19.48;;;;;;;;;;5052632;28;20091;-68
2021/12/29 02:14:30;;;;;;;76.35;19.92;;;;;;;;;;5035661;28;20132;-67
2021/12/29 02:16:56;;;;;;;80.13;20.48;;;;;;;;;;5048229;28;20547;-68
2021/12/29 02:19:25;;;;;;;78.47;21.25;;;;;;;;;;5031782;28;20255;-68
2021/12/29 02:22:02;;;;;;;81.47;24.40;;;;;;;;;;5032425;28;20409;-68
2021/12/29 02:24:38;;;;;;;73.78;24.00;;;;;;;;;;5031950;28;20037;-69
2021/12/29 02:27:05;;;;;;;84.70;23.33;;;;;;;;;;5032346;28;20143;-68
2021/12/29 02:29:31;;;;;;;78.05;25.05;;;;;;;;;;5032082;28;20056;-68
2021/12/29 02:31:57;;;;;;;70.55;24.75;;;;;;;;;;5033371;28;20046;-71
2021/12/29 02:34:23;;;;;;;74.75;26.50;;;;;;;;;;5032195;28;20528;-70
2021/12/29 02:36:49;;;;;;;72.78;24.95;;;;;;;;;;5015448;28;20515;-71
2021/12/29 02:39:20;;;;;;;62.67;24.30;;;;;;;;;;5014921;28;20045;-70
2021/12/29 02:41:50;;;;;;;69.25;24.08;;;;;;;;;;5031917;28;20150;-69
2021/12/29 02:44:20;;;;;;;70.40;24.85;;;;;;;;;;5031799;28;20056;-69
2021/12/29 02:46:46;;;;;;;68.72;25.13;;;;;;;;;;5031863;28;20121;-68
2021/12/29 02:49:13;;;;;;;69.88;25.30;;;;;;;;;;5031344;28;20041;-68
2021/12/29 02:51:39;;;;;;;62.97;23.58;;;;;;;;;;5031983;28;20500;-68
2021/12/29 02:54:05;;;;;;;71.78;25.95;;;;;;;;;;5031550;28;20045;-69
2021/12/29 02:56:31;;;;;;;68.82;24.73;;;;;;;;;;5031344;28;20095;-68
2021/12/29 02:58:58;;;;;;;76.68;24.83;;;;;;;;;;5031228;28;20050;-68
2021/12/29 03:01:24;;;;;;;70.60;24.83;;;;;;;;;;5031383;28;20056;-68
2021/12/29 03:03:50;;;;;;;64.65;24.05;;;;;;;;;;5031411;28;20037;-69
2021/12/29 03:06:17;;;;;;;67.93;24.55;;;;;;;;;;5031463;28;20042;-68
2021/12/29 03:08:43;;;;;;;70.22;24.75;;;;;;;;;;5031702;28;20084;-67
2021/12/29 03:11:09;;;;;;;61.72;23.60;;;;;;;;;;5051297;28;20460;-68
2021/12/29 03:13:37;;;;;;;67.93;23.95;;;;;;;;;;5051322;28;20076;-69
2021/12/29 03:16:03;;;;;;;71.55;24.67;;;;;;;;;;5051068;28;20095;-68
2021/12/29 03:18:30;;;;;;;62.00;23.90;;;;;;;;;;5050152;28;20140;-67
2021/12/29 03:20:56;;;;;;;64.95;23.90;;;;;;;;;;5050766;28;20136;-71
2021/12/29 03:23:22;;;;;;;67.75;23.75;;;;;;;;;;5050878;28;20094;-70
2021/12/29 03:25:48;;;;;;;61.40;23.48;;;;;;;;;;5051153;28;20041;-69
2021/12/29 03:28:16;;;;;;;69.50;23.55;;;;;;;;;;5050905;28;20080;-68
2021/12/29 03:30:43;;;;;;;61.60;22.52;;;;;;;;;;5050688;28;20483;-69
2021/12/29 03:33:09;;;;;;;68.35;24.95;;;;;;;;;;5051112;28;20154;-68
2021/12/29 03:35:38;;;;;;;62.50;23.42;;;;;;;;;;5050730;28;20048;-68
2021/12/29 03:38:06;;;;;;;58.22;22.63;;;;;;;;;;5034135;28;20503;-68
2021/12/29 03:40:35;;;;;;;63.00;24.05;;;;;;;;;;5050252;28;20045;-68
2021/12/29 03:43:02;;;;;;;61.05;23.52;;;;;;;;;;5034414;28;20433;-70
2021/12/29 03:45:28;;;;;;;68.40;24.48;;;;;;;;;;5050533;28;20519;-68
2021/12/29 03:47:54;;;;;;;59.10;22.63;;;;;;;;;;5050672;28;20048;-68
2021/12/29 03:50:20;;;;;;;65.57;22.92;;;;;;;;;;5050242;28;20041;-70
2021/12/29 03:52:46;;;;;;;49.60;19.42;;;;;;;;;;5050363;28;20127;-69
2021/12/29 03:55:12;;;;;;;49.90;20.67;;;;;;;;;;5050403;28;20072;-69
2021/12/29 03:57:38;;;;;;;64.13;22.38;;;;;;;;;;5037919;28;20044;-69
2021/12/29 04:00:06;;;;;;;64.60;21.27;;;;;;;;;;5030036;28;20045;-69
2021/12/29 04:02:32;;;;;;;63.03;21.95;;;;;;;;;;5030236;28;20046;-69
2021/12/29 04:04:58;;;;;;;55.15;19.73;;;;;;;;;;5030189;28;20044;-69
2021/12/29 04:07:24;;;;;;;44.58;18.27;;;;;;;;;;5030286;28;20133;-69
2021/12/29 04:09:50;;;;;;;43.85;18.25;;;;;;;;;;5029830;28;20504;-71
2021/12/29 04:12:16;;;;;;;57.50;17.33;;;;;;;;;;5030242;28;20041;-68
2021/12/29 04:14:42;;;;;;;56.20;17.38;;;;;;;;;;5047742;28;20352;-69
2021/12/29 04:17:10;;;;;;;47.25;16.63;;;;;;;;;;5050184;28;20124;-68
2021/12/29 04:20:54;;;;;;;62.33;17.15;;;;;;;;;;5049345;28;20045;-68
2021/12/29 04:22:26;;;;;;;47.67;17.08;;;;;;;;;;5049919;28;20107;-69
2021/12/29 04:24:52;;;;;;;56.70;18.10;;;;;;;;;;5051200;28;20045;-68
2021/12/29 04:27:21;;;;;;;53.00;17.15;;;;;;;;;;5050025;28;20039;-69
2021/12/29 04:29:47;;;;;;;51.90;17.98;;;;;;;;;;5049284;28;20503;-69
2021/12/29 04:32:13;;;;;;;58.33;19.23;;;;;;;;;;5050001;28;20139;-71
2021/12/29 04:34:39;;;;;;;56.65;18.27;;;;;;;;;;5049666;28;20079;-69
2021/12/29 04:37:05;;;;;;;54.67;17.35;;;;;;;;;;5049845;28;20123;-68
2021/12/29 04:39:31;;;;;;;57.28;18.77;;;;;;;;;;5050760;28;20037;-71
2021/12/29 04:41:57;;;;;;;53.25;18.35;;;;;;;;;;5050002;28;20123;-69
2021/12/29 04:44:23;;;;;;;50.25;17.83;;;;;;;;;;5049607;28;20041;-71
2021/12/29 04:46:49;;;;;;;49.90;16.90;;;;;;;;;;5033009;28;20120;-69
2021/12/29 04:49:22;;;;;;;55.00;18.08;;;;;;;;;;5049268;28;20045;-69
2021/12/29 04:51:54;;;;;;;56.30;19.52;;;;;;;;;;5049738;28;20495;-68
2021/12/29 04:54:20;;;;;;;56.03;17.80;;;;;;;;;;5049864;28;20076;-70
2021/12/29 04:56:46;;;;;;;57.13;19.40;;;;;;;;;;5048510;28;20461;-68
2021/12/29 04:59:14;;;;;;;58.30;18.92;;;;;;;;;;5049018;28;20041;-69
2021/12/29 05:01:40;;;;;;;61.80;17.25;;;;;;;;;;5049605;28;20045;-68
2021/12/29 05:04:06;;;;;;;62.50;19.42;;;;;;;;;;5049624;28;20120;-68
2021/12/29 05:09:17;;;;;;;66.10;19.80;;;;;;;;;;5049176;28;20135;-72
2021/12/29 05:11:43;;;;;;;63.00;19.70;;;;;;;;;;5049703;28;20128;-68
2021/12/29 05:14:09;;;;;;;62.85;18.80;;;;;;;;;;5049282;28;20072;-68
2021/12/29 05:16:35;;;;;;;66.47;19.13;;;;;;;;;;5049570;28;20045;-69
2021/12/29 05:19:01;;;;;;;78.78;21.52;;;;;;;;;;5032143;28;20042;-68
2021/12/29 05:21:27;;;;;;;73.10;19.98;;;;;;;;;;5049407;28;20102;-69
2021/12/29 05:23:54;;;;;;;61.45;19.95;;;;;;;;;;5049586;28;20037;-69
2021/12/29 05:26:20;;;;;;;61.95;18.95;;;;;;;;;;5049200;28;20033;-70
2021/12/29 05:28:46;;;;;;;73.93;21.50;;;;;;;;;;5049323;28;20044;-69
2021/12/29 05:31:12;;;;;;;78.95;19.42;;;;;;;;;;5049278;28;20048;-69
2021/12/29 05:33:38;;;;;;;69.72;19.23;;;;;;;;;;5049343;28;20045;-68
2021/12/29 05:36:04;;;;;;;68.90;20.52;;;;;;;;;;5049261;28;20076;-68
2021/12/29 05:38:30;;;;;;;74.78;20.10;;;;;;;;;;5049239;28;20139;-68
2021/12/29 05:40:56;;;;;;;57.83;17.83;;;;;;;;;;5050107;28;20124;-68
2021/12/29 05:43:22;;;;;;;57.80;19.95;;;;;;;;;;5052418;28;20033;-67
2021/12/29 05:45:49;;;;;;;68.60;21.77;;;;;;;;;;5052951;28;20397;-68
2021/12/29 05:48:15;;;;;;;69.22;19.55;;;;;;;;;;5054173;28;20056;-68
2021/12/29 05:50:41;;;;;;;76.70;21.40;;;;;;;;;;5052787;28;20139;-68
2021/12/29 05:53:07;;;;;;;62.03;19.30;;;;;;;;;;5053100;28;20071;-67
2021/12/29 05:55:33;;;;;;;84.05;22.52;;;;;;;;;;5052778;28;20621;-68
2021/12/29 05:57:59;;;;;;;65.30;20.58;;;;;;;;;;5037289;28;20117;-67
2021/12/29 06:00:26;;;;;;;90.97;23.38;;;;;;;;;;5032669;28;20045;-68
2021/12/29 06:02:52;;;;;;;91.47;23.58;;;;;;;;;;5032520;28;20535;-68
2021/12/29 06:05:19;;;;;;;78.13;23.35;;;;;;;;;;5068171;23;20049;-79
2021/12/29 06:07:45;;;;;;;81.68;23.55;;;;;;;;;;5066566;28;20049;-80
2021/12/29 06:10:12;;;;;;;70.60;22.13;;;;;;;;;;5047199;28;20090;-80
2021/12/29 06:12:38;;;;;;;90.15;22.50;;;;;;;;;;5046086;28;20603;-80
2021/12/29 06:15:05;;;;;;;80.75;21.65;;;;;;;;;;5056023;28;20567;-80
2021/12/29 06:17:31;;;;;;;79.72;21.85;;;;;;;;;;5046608;28;20041;-78
2021/12/29 06:19:57;;;;;;;68.82;20.63;;;;;;;;;;5046162;28;20041;-78
2021/12/29 06:22:23;;;;;;;76.25;23.25;;;;;;;;;;5030231;28;20052;-78
2021/12/29 06:24:52;;;;;;;94.97;22.63;;;;;;;;;;5046269;28;20034;-79
2021/12/29 06:27:18;;;;;;;73.13;22.60;;;;;;;;;;5046056;28;20041;-80
2021/12/29 06:29:44;;;;;;;69.05;20.02;;;;;;;;;;5047945;28;20101;-80
2021/12/29 06:32:10;;;;;;;68.90;22.20;;;;;;;;;;5033141;28;20044;-79
2021/12/29 06:34:37;;;;;;;64.53;21.02;;;;;;;;;;5049419;28;20037;-79
2021/12/29 06:37:08;;;;;;;68.80;19.42;;;;;;;;;;5049870;28;20056;-79
2021/12/29 06:39:34;;;;;;;76.97;22.35;;;;;;;;;;5032197;28;20065;-77
2021/12/29 06:42:00;;;;;;;75.50;21.90;;;;;;;;;;5050318;28;20041;-78
2021/12/29 06:44:26;;;;;;;94.32;22.35;;;;;;;;;;5033678;28;20175;-78
2021/12/29 06:46:52;;;;;;;75.97;20.85;;;;;;;;;;5050108;28;20077;-81
2021/12/29 06:49:18;;;;;;;94.55;21.10;;;;;;;;;;5042413;28;20049;-78
2021/12/29 06:51:44;;;;;;;73.85;20.25;;;;;;;;;;5044261;28;20095;-79
2021/12/29 06:54:10;;;;;;;71.07;20.08;;;;;;;;;;5043866;28;20045;-78
2021/12/29 06:56:36;;;;;;;62.92;18.67;;;;;;;;;;5026335;28;20485;-79
2021/12/29 06:59:02;;;;;;;78.60;22.13;;;;;;;;;;5025945;28;20045;-80
2021/12/29 07:01:28;;;;;;;78.78;20.50;;;;;;;;;;5027203;28;20530;-80
2021/12/29 07:03:54;;;;;;;78.97;19.50;;;;;;;;;;5025817;28;20047;-80
2021/12/29 07:06:20;;;;;;;82.00;19.95;;;;;;;;;;5009816;28;20038;-80
2021/12/29 07:08:46;;;;;;;89.18;19.13;;;;;;;;;;5011819;28;20050;-79
2021/12/29 07:11:12;;;;;;;81.53;18.92;;;;;;;;;;5026077;28;20080;-79
2021/12/29 07:13:38;;;;;;;102.20;20.52;;;;;;;;;;5034076;28;20045;-77
2021/12/29 07:16:04;;;;;;;112.25;21.92;;;;;;;;;;5043581;28;20048;-79
2021/12/29 07:18:30;;;;;;;92.82;18.70;;;;;;;;;;5046274;28;20076;-80
2021/12/29 07:20:56;;;;;;;136.18;22.67;;;;;;;;;;5029589;28;20037;-79
2021/12/29 07:23:22;;;;;;;155.77;25.30;;;;;;;;;;5045285;28;20041;-79
2021/12/29 07:25:48;;;;;;;176.27;25.48;;;;;;;;;;5040630;28;20285;-78
2021/12/29 07:30:59;;;;;;;120.15;21.02;;;;;;;;;;5045642;28;20079;-79
2021/12/29 07:33:25;;;;;;;132.75;22.63;;;;;;;;;;5045082;28;20029;-79
2021/12/29 07:35:51;;;;;;;117.55;20.13;;;;;;;;;;5044532;28;20382;-78
2021/12/29 07:38:17;;;;;;;106.18;19.33;;;;;;;;;;5044560;28;20051;-78
2021/12/29 07:40:43;;;;;;;150.30;22.70;;;;;;;;;;5028525;28;20045;-80
2021/12/29 07:43:09;;;;;;;91.85;15.63;;;;;;;;;;5029457;28;20508;-80
2021/12/29 07:45:35;;;;;;;91.07;16.15;;;;;;;;;;5040175;28;20041;-78
2021/12/29 07:48:04;;;;;;;97.57;17.38;;;;;;;;;;5039902;28;20044;-78
2021/12/29 07:50:30;;;;;;;108.82;17.27;;;;;;;;;;5038652;28;20052;-77
2021/12/29 07:52:56;;;;;;;116.15;17.92;;;;;;;;;;5041095;28;20127;-77
2021/12/29 07:55:22;;;;;;;112.22;17.80;;;;;;;;;;5040833;28;20068;-78
2021/12/29 07:57:48;;;;;;;107.30;16.77;;;;;;;;;;5018393;28;20049;-78
2021/12/29 08:00:15;;;;;;;102.53;17.92;;;;;;;;;;5004720;28;20042;-79
2021/12/29 08:02:44;;;;;;;142.55;20.85;;;;;;;;;;5001989;28;20386;-77
2021/12/29 08:05:10;;;;;;;161.85;23.30;;;;;;;;;;5016229;28;20045;-77
2021/12/29 08:07:36;;;;;;;94.20;18.23;;;;;;;;;;5037916;28;20070;-77
2021/12/29 08:10:03;;;;;;;136.52;20.48;;;;;;;;;;5044770;28;20045;-77
2021/12/29 08:12:29;;;;;;;113.25;21.70;;;;;;;;;;5045873;28;20037;-78
2021/12/29 08:14:55;;;;;;;160.85;20.00;;;;;;;;;;5028242;28;20386;-78
2021/12/29 08:17:21;;;;;;;210.93;28.17;;;;;;;;;;5029324;28;20037;-78
2021/12/29 08:19:47;;;;;;;127.95;19.65;;;;;;;;;;5045566;28;20534;-78
2021/12/29 08:22:13;;;;;;;89.80;18.42;;;;;;;;;;5027443;28;20041;-78
2021/12/29 08:24:39;;;;;;;207.75;26.65;;;;;;;;;;5044842;28;20044;-79
2021/12/29 08:27:05;;;;;;;125.88;18.80;;;;;;;;;;5012160;28;20033;-79
2021/12/29 08:29:31;;;;;;;158.43;24.88;;;;;;;;;;5028177;28;20045;-80
2021/12/29 08:31:58;;;;;;;101.60;18.05;;;;;;;;;;5026064;28;20322;-82
2021/12/29 08:34:25;;;;;;;92.82;19.77;;;;;;;;;;5023265;28;20413;-77
2021/12/29 08:36:51;;;;;;;129.38;21.08;;;;;;;;;;5044908;28;20049;-79
2021/12/29 08:39:20;;;;;;;86.32;16.10;;;;;;;;;;5044675;28;20447;-79
2021/12/29 08:41:47;;;;;;;69.70;17.13;;;;;;;;;;5042316;28;20045;-79
2021/12/29 08:44:13;;;;;;;50.67;14.48;;;;;;;;;;5044263;28;20041;-77
2021/12/29 08:46:39;;;;;;;55.22;13.93;;;;;;;;;;5041446;28;20048;-78
2021/12/29 08:49:05;;;;;;;40.72;14.07;;;;;;;;;;5043026;28;20060;-77
2021/12/29 08:51:31;;;;;;;62.50;15.98;;;;;;;;;;5048677;28;20063;-78
2021/12/29 08:53:57;;;;;;;42.60;13.32;;;;;;;;;;5057975;28;20060;-77
2021/12/29 08:56:24;;;;;;;44.50;13.38;;;;;;;;;;5056394;28;20467;-80
2021/12/29 08:58:51;;;;;;;45.72;13.55;;;;;;;;;;5038594;28;20101;-79
2021/12/29 09:01:17;;;;;;;36.35;12.85;;;;;;;;;;5037629;28;20041;-79
2021/12/29 09:03:43;;;;;;;48.38;13.18;;;;;;;;;;5039884;28;20575;-79
2021/12/29 09:06:10;;;;;;;48.85;13.98;;;;;;;;;;5038623;28;20127;-79
2021/12/29 09:08:36;;;;;;;49.65;13.75;;;;;;;;;;5040242;28;20537;-78
2021/12/29 09:11:02;;;;;;;52.75;14.27;;;;;;;;;;5022544;28;20227;-80
2021/12/29 09:13:28;;;;;;;43.45;13.20;;;;;;;;;;5039957;28;20073;-79
2021/12/29 09:15:56;;;;;;;36.40;12.05;;;;;;;;;;5044188;28;20046;-79
2021/12/29 09:18:24;;;;;;;32.90;11.63;;;7.80;99.90;;;;;;5050735;28;20041;-77
2021/12/29 09:20:50;;;;;;;43.67;13.18;;;;;;;;;;5041364;28;20049;-78
2021/12/29 09:23:16;;;;;;;36.45;12.27;;;;;;;;;;5054509;28;20041;-79
2021/12/29 09:25:43;;;;;;;41.60;12.45;;;;;;;;;;5039500;28;20046;-80
2021/12/29 09:28:10;;;;;;;38.97;13.05;;;;;;;;;;5039972;28;20037;-76
2021/12/29 09:30:37;;;;;;;47.80;14.18;;;;;;;;;;5047575;28;20048;-78
2021/12/29 09:33:03;;;;;;;39.10;12.07;;;;;;;;;;5064787;28;20059;-78
2021/12/29 09:35:29;;;;;;;47.90;13.45;;;;;;;;;;5065759;28;20128;-79
2021/12/29 09:37:55;;;;;;;45.60;12.70;;;;;;;;;;5049875;28;20036;-79
2021/12/29 09:40:22;;;;;;;30.27;11.68;;;;;;;;;;5068738;28;20041;-79
2021/12/29 09:42:51;;;;;;;28.42;11.63;;;8.00;99.90;;;;;;5067358;28;20104;-77
2021/12/29 09:45:17;;;;;;;35.13;10.82;;;;;;;;;;5065482;28;20032;-77
2021/12/29 09:47:43;;;;;;;31.88;10.85;;;8.00;99.90;;;;;;5066989;28;20045;-77
2021/12/29 09:50:11;;;;;;;28.50;10.57;;;7.80;99.90;;;;;;5067204;28;20041;-77
2021/12/29 09:52:37;;;;;;;26.25;10.07;;;8.10;99.90;;;;;;5062314;28;20041;-78
2021/12/29 09:55:06;;;;;;;24.75;8.93;;;8.00;99.90;;;;;;5058870;28;20521;-80
2021/12/29 09:57:36;;;;;;;28.98;10.23;;;8.10;99.90;;;;;;5049878;28;20033;-79
2021/12/29 10:00:07;;;;;;;32.67;10.73;;;7.80;99.90;;;;;;5052704;28;20063;-80
2021/12/29 10:02:33;;;;;;;36.88;10.07;;;7.90;99.90;;;;;;5056111;28;20063;-77
2021/12/29 10:04:59;;;;;;;26.90;9.27;;;8.00;99.90;;;;;;5053569;28;20037;-78
2021/12/29 10:07:26;;;;;;;30.23;9.57;;;;;;;;;;5037960;28;20037;-78
2021/12/29 10:09:53;;;;;;;28.25;10.02;;;8.00;99.90;;;;;;5039910;28;20677;-79
2021/12/29 10:12:21;;;;;;;28.67;9.27;;;8.10;99.90;;;;;;5046830;28;20059;-79
2021/12/29 10:14:53;;;;;;;28.15;8.95;;;8.00;99.90;;;;;;5039962;28;20045;-79
2021/12/29 10:17:19;;;;;;;25.92;9.30;;;7.90;99.90;;;;;;5042556;28;20091;-79
2021/12/29 10:19:45;;;;;;;29.13;10.27;;;8.10;99.90;;;;;;5057598;28;20454;-78
2021/12/29 10:22:22;;;;;;;24.88;9.27;;;8.00;99.90;;;;;;5049763;28;20425;-78
2021/12/29 10:24:48;;;;;;;25.75;8.52;;;8.00;99.90;;;;;;5043292;28;20896;-79
2021/12/29 10:27:19;;;;;;;32.47;9.02;;;;;;;;;;5050018;28;20463;-79
2021/12/29 10:29:45;;;;;;;27.13;8.70;;;7.90;99.90;;;;;;5043088;28;20131;-78
2021/12/29 10:32:11;;;;;;;34.08;9.10;;;8.00;99.90;;;;;;5058733;28;20133;-79
2021/12/29 10:34:37;;;;;;;37.88;7.93;;;7.80;99.90;;;;;;5058367;28;20049;-77
2021/12/29 10:37:04;;;;;;;27.23;7.50;;;;;;;;;;5049266;28;20136;-79
2021/12/29 10:39:43;;;;;;;31.50;9.65;;;8.20;99.90;;;;;;5046951;28;20086;-75
2021/12/29 10:42:21;;;;;;;26.23;7.90;;;8.00;99.90;;;;;;5038699;28;20064;-78
2021/12/29 10:44:59;;;;;;;29.05;8.43;;;8.00;99.90;;;;;;5026147;28;20038;-80
2021/12/29 10:47:31;;;;;;;27.27;8.80;;;7.90;99.90;;;;;;5019218;28;20464;-80
2021/12/29 10:49:58;;;;;;;26.33;8.32;;;8.00;99.90;;;;;;5040934;28;20033;-78
2021/12/29 10:52:46;;;;;;;31.40;7.65;;;7.90;99.90;;;;;;5039482;28;20120;-80
2021/12/29 10:55:22;;;;;;;26.95;7.90;;;8.00;99.90;;;;;;5036076;28;20045;-80
2021/12/29 10:58:18;;;;;;;34.58;9.48;;;8.20;99.90;;;;;;5035012;28;20048;-77
2021/12/29 11:00:48;;;;;;;26.58;8.00;;;8.20;99.90;;;;;;5044594;28;20062;-79
2021/12/29 11:03:20;;;;;;;30.73;8.18;;;8.10;99.90;;;;;;5043896;28;20033;-78
2021/12/29 11:05:48;;;;;;;25.55;9.07;;;8.00;99.90;;;;;;5038051;28;20041;-79
2021/12/29 11:08:15;;;;;;;23.08;8.10;;;8.20;99.90;;;;;;5045132;28;20048;-80
2021/12/29 11:10:43;;;;;;;30.13;8.52;;;8.00;99.90;;;;;;5054082;28;20040;-78
2021/12/29 11:13:09;;;;;;;33.58;9.80;;;8.20;99.90;;;;;;5051175;28;20025;-79
2021/12/29 11:15:43;;;;;;;39.35;9.63;;;;;;;;;;5019896;28;20038;-78
2021/12/29 11:18:17;;;;;;;30.60;8.85;;;;;;;;;;5020342;28;20124;-79
2021/12/29 11:20:44;;;;;;;36.65;10.20;;;;;;;;;;5037006;28;20049;-79
2021/12/29 11:23:12;;;;;;;32.95;9.23;;;8.30;99.90;;;;;;5036852;28;20640;-78
2021/12/29 11:25:39;;;;;;;27.13;8.38;;;8.30;99.90;;;;;;5037404;28;20063;-79
2021/12/29 11:28:06;;;;;;;24.02;7.38;;;8.30;99.90;;;;;;5037480;28;20457;-79
2021/12/29 11:30:32;;;;;;;26.90;9.20;;;8.20;99.90;;;;;;5035274;28;20040;-79
2021/12/29 11:33:09;;;;;;;30.60;9.23;;;;;;;;;;5015634;28;20117;-78
2021/12/29 11:35:41;;;;;;;32.47;9.38;;;8.10;99.90;;;;;;5017631;28;20122;-80
2021/12/29 11:38:08;;;;;;;32.95;8.38;;;8.30;99.90;;;;;;5042581;28;20037;-79
2021/12/29 11:40:37;;;;;;;31.52;8.07;;;;;;;;;;5036334;28;20404;-79
2021/12/29 11:43:03;;;;;;;28.98;8.48;;;8.30;99.90;;;;;;5038202;28;20069;-79
2021/12/29 11:45:28;;;;;;;26.10;7.25;;;8.30;99.90;;;;;;5047227;28;20021;-78
2021/12/29 11:47:54;;;;;;;26.42;8.45;;;8.00;99.90;;;;;;5054794;28;20033;-78
2021/12/29 11:50:33;;;;;;;20.25;7.63;;;8.10;99.90;;;;;;5056052;28;20045;-77
2021/12/29 11:53:09;;;;;;;20.55;6.50;;;8.20;99.90;;;;;;5046051;28;20049;-77
2021/12/29 11:55:41;;;;;;;21.75;7.50;;;;;;;;;;5042262;28;20029;-76
2021/12/29 11:58:34;;;;;;;19.80;5.88;;;8.20;99.90;;;;;;5050606;28;20017;-76
2021/12/29 12:01:03;;;;;;;31.03;7.13;;;;;;;;;;5052941;28;20053;-79
2021/12/29 12:03:42;;;;;;;18.02;7.10;;;;;;;;;;5035979;28;20048;-79
2021/12/29 12:06:19;;;;;;;17.00;6.05;;;;;;;;;;5027762;28;20047;-78
2021/12/29 12:08:46;;;;;;;24.98;6.55;;;8.10;99.90;;;;;;5050169;28;20079;-77
2021/12/29 12:11:26;;;;;;;16.58;5.95;;;;;;;;;;5039170;28;20105;-79
2021/12/29 12:13:52;;;;;;;26.63;7.68;;;8.10;99.90;;;;;;5040873;28;20041;-79
2021/12/29 12:16:20;;;;;;;19.95;6.50;;;;;;;;;;5040432;28;20043;-77
2021/12/29 12:18:52;;;;;;;11.95;5.50;;;8.20;99.90;;;;;;5052595;28;20044;-77
2021/12/29 12:21:25;;;;;;;13.73;5.40;;;;;;;;;;5040999;28;20029;-78
2021/12/29 12:23:53;;;;;;;18.05;6.57;;;;;;;;;;5049679;28;20041;-79
2021/12/29 12:26:25;;;;;;;18.00;6.97;;;;;;;;;;5065890;28;20047;-80
2021/12/29 12:28:54;;;;;;;22.30;8.25;;;8.20;99.90;;;;;;5064597;28;20108;-77
2021/12/29 12:31:30;;;;;;;19.20;7.00;;;;;;;;;;5065480;28;20409;-80
2021/12/29 12:34:12;;;;;;;17.92;6.07;;;;;;;;;;5048676;28;20045;-78
2021/12/29 12:36:39;;;;;;;22.73;5.97;;;;;;;;;;5053920;28;20102;-79
2021/12/29 12:39:14;;;;;;;19.60;6.15;;;;;;;;;;5054569;22;20073;-68
2021/12/29 12:41:43;;;;;;;15.40;5.85;;;8.10;99.90;;;;;;5026990;28;20053;-68
2021/12/29 12:44:10;;;;;;;14.13;5.47;;;;;;;;;;5027263;28;20049;-68
2021/12/29 12:46:45;;;;;;;13.48;5.18;;;;;;;;;;5029669;28;20045;-68
2021/12/29 12:49:17;;;;;;;15.90;5.65;;;;;;;;;;5017972;28;20065;-70
2021/12/29 12:51:59;;;;;;;22.02;6.20;;;;;;;;;;5021626;28;20073;-70
2021/12/29 12:54:36;;;;;;;13.73;5.70;;;;;;;;;;5026564;28;20046;-70
2021/12/29 12:57:06;;;;;;;15.43;5.43;;;;;;;;;;5025140;28;20041;-69
2021/12/29 12:59:41;;;;;;;19.52;5.80;;;8.40;99.90;;;;;;5007648;28;20042;-69
2021/12/29 13:02:15;;;;;;;13.70;6.07;;;;;;;;;;5025899;28;21107;-69
2021/12/29 13:05:01;;;;;;;19.45;6.30;;;;;;;;;;5025176;28;20115;-69
2021/12/29 13:07:29;;;;;;;15.52;6.10;;;;;;;;;;5020057;28;20053;-69
2021/12/29 13:09:56;;;;;;;17.05;5.93;;;;;;;;;;5013869;28;20037;-68
2021/12/29 13:12:27;;;;;;;13.85;6.53;;;;;;;;;;5013976;28;20049;-70
2021/12/29 13:15:01;;;;;;;15.93;6.07;;;;;;;;;;5013861;28;20045;-68
2021/12/29 13:17:27;;;;;;;17.75;6.72;;;8.20;99.90;;;;;;5013935;28;20573;-69
2021/12/29 13:19:54;;;;;;;18.40;6.68;;;;;;;;;;5013030;28;20045;-69
2021/12/29 13:22:29;;;;;;;17.88;6.05;;;;;;;;;;5013656;28;20088;-69
2021/12/29 13:25:04;;;;;;;18.63;6.03;;;;;;;;;;5013782;28;20572;-67
2021/12/29 13:27:30;;;;;;;19.10;7.05;;;8.10;99.90;;;;;;5014681;28;20045;-70
2021/12/29 13:29:58;;;;;;;13.50;6.57;;;;;;;;;;4997036;28;20111;-69
2021/12/29 13:32:25;;;;;;;19.27;7.50;;;8.10;99.90;;;;;;5013407;28;20562;-69
2021/12/29 13:35:01;;;;;;;14.85;6.47;;;;;;;;;;4997185;28;20045;-69
2021/12/29 13:37:28;;;;;;;16.70;6.63;;;8.20;99.90;;;;;;4996964;28;20560;-69
2021/12/29 13:39:55;;;;;;;15.88;6.65;;;;;;;;;;4993941;28;20393;-68
2021/12/29 13:42:21;;;;;;;17.80;6.93;;;8.10;99.90;;;;;;4993617;28;20042;-69
2021/12/29 13:44:48;;;;;;;17.98;7.68;;;;;;;;;;4994006;28;20034;-69
2021/12/29 13:47:22;;;;;;;18.13;7.22;;;;;;;;;;4993657;28;20046;-69
2021/12/29 13:49:48;;;;;;;18.60;8.02;;;8.00;99.90;;;;;;4993470;28;20564;-69
2021/12/29 13:52:13;;;;;;;17.65;7.00;;;8.10;99.90;;;;;;4993644;28;20042;-69
2021/12/29 13:54:40;;;;;;;16.45;6.72;;;;;;;;;;4993342;28;20038;-69
2021/12/29 13:57:06;;;;;;;19.13;7.53;;;7.90;99.90;;;;;;4993701;28;20054;-69
2021/12/29 13:59:33;;;;;;;19.02;7.55;;;;;;;;;;4993056;28;20465;-69
2021/12/29 14:02:02;;;;;;;18.27;7.22;;;;;;;;;;4992333;28;20069;-70
2021/12/29 14:04:31;;;;;;;18.27;8.15;;;8.00;99.90;;;;;;4994470;28;20074;-69
2021/12/29 14:07:01;;;;;;;17.42;7.82;;;8.00;99.90;;;;;;4994081;28;20117;-68
2021/12/29 14:09:31;;;;;;;21.75;7.60;;;8.00;99.90;;;;;;4994790;28;20089;-68